# Tabular Observed and Forecast Hydrograph Information
#
# Location: Salinas River - Soledad (SDDC1)
#
# File Generation Time: 09/04/2026 at 07:41 AM PDT
# Data Interval: 1 Hour
#
# Most Recent Date & Time of Maximum Observed: 09/01/2026 at 12:00 AM PDT
# Maximum Observed Stage: 10.22 Feet
# Maximum Observed Flow: 256 cfs
#
# Earliest Date & Time of Maximum Forecast: 09/04/2026 at 08:00 AM PDT
# Maximum Forecast Stage: 10.07 Feet
# Maximum Forecast Flow: 218 cfs
#
# OBSERVED
#
# Date & Time (Local) Stage (Feet) Flow (cfs) Trend Observed Status
# ---------------------------------------------------------------------------------
08/30/2026 07 AM PDT 10.15 237 Normal
08/30/2026 08 AM PDT 10.17 242 + Normal
08/30/2026 09 AM PDT 10.17 242 0 Normal
08/30/2026 10 AM PDT 10.15 237 - Normal
08/30/2026 11 AM PDT 10.16 239 + Normal
08/30/2026 12 PM PDT 10.17 242 + Normal
08/30/2026 01 PM PDT 10.18 244 + Normal
08/30/2026 02 PM PDT 10.18 244 0 Normal
08/30/2026 03 PM PDT 10.17 242 - Normal
08/30/2026 04 PM PDT 10.19 247 + Normal
08/30/2026 05 PM PDT 10.18 244 - Normal
08/30/2026 06 PM PDT 10.17 242 - Normal
08/30/2026 07 PM PDT 10.17 242 0 Normal
08/30/2026 08 PM PDT 10.18 244 + Normal
08/30/2026 09 PM PDT 10.17 242 - Normal
08/30/2026 10 PM PDT 10.17 242 0 Normal
08/30/2026 11 PM PDT 10.17 242 0 Normal
08/31/2026 12 AM PDT 10.17 242 0 Normal
08/31/2026 01 AM PDT 10.18 244 + Normal
08/31/2026 02 AM PDT 10.18 244 0 Normal
08/31/2026 03 AM PDT 10.19 247 + Normal
08/31/2026 04 AM PDT 10.18 244 - Normal
08/31/2026 05 AM PDT 10.19 247 + Normal
08/31/2026 06 AM PDT 10.21 253 + Normal
08/31/2026 07 AM PDT 10.19 247 - Normal
08/31/2026 08 AM PDT 10.18 244 - Normal
08/31/2026 09 AM PDT 10.19 247 + Normal
08/31/2026 10 AM PDT 10.19 247 0 Normal
08/31/2026 11 AM PDT 10.20 249 + Normal
08/31/2026 12 PM PDT 10.21 253 + Normal
08/31/2026 01 PM PDT 10.20 249 - Normal
08/31/2026 02 PM PDT 10.21 253 + Normal
08/31/2026 03 PM PDT 10.22 256 + Normal
08/31/2026 04 PM PDT 10.21 253 - Normal
08/31/2026 05 PM PDT 10.21 253 0 Normal
08/31/2026 06 PM PDT 10.20 249 - Normal
08/31/2026 07 PM PDT 10.19 247 - Normal
08/31/2026 08 PM PDT 10.20 249 + Normal
08/31/2026 09 PM PDT 10.20 249 0 Normal
08/31/2026 10 PM PDT 10.20 249 0 Normal
08/31/2026 11 PM PDT 10.19 247 - Normal
09/01/2026 12 AM PDT 10.22 256 + Normal
09/01/2026 01 AM PDT 10.20 249 - Normal
09/01/2026 02 AM PDT 10.20 249 0 Normal
09/01/2026 03 AM PDT 10.19 247 - Normal
09/01/2026 04 AM PDT 10.19 247 0 Normal
09/01/2026 05 AM PDT 10.20 249 + Normal
09/01/2026 06 AM PDT 10.20 249 0 Normal
09/01/2026 07 AM PDT 10.19 247 - Normal
09/01/2026 08 AM PDT 10.20 249 + Normal
09/01/2026 09 AM PDT 10.19 247 - Normal
09/01/2026 10 AM PDT 10.18 244 - Normal
09/01/2026 11 AM PDT 10.18 244 0 Normal
09/01/2026 12 PM PDT 10.17 242 - Normal
09/01/2026 01 PM PDT 10.17 242 0 Normal
09/01/2026 02 PM PDT 10.17 242 0 Normal
09/01/2026 03 PM PDT 10.17 242 0 Normal
09/01/2026 04 PM PDT 10.15 237 - Normal
09/01/2026 05 PM PDT 10.19 247 + Normal
09/01/2026 06 PM PDT 10.16 239 - Normal
09/01/2026 07 PM PDT 10.16 239 0 Normal
09/01/2026 08 PM PDT 10.16 239 0 Normal
09/01/2026 09 PM PDT 10.16 239 0 Normal
09/01/2026 10 PM PDT 10.15 237 - Normal
09/01/2026 11 PM PDT 10.15 237 0 Normal
09/02/2026 12 AM PDT 10.15 237 0 Normal
09/02/2026 01 AM PDT 10.15 237 0 Normal
09/02/2026 02 AM PDT 10.13 232 - Normal
09/02/2026 03 AM PDT 10.15 237 + Normal
09/02/2026 04 AM PDT 10.14 235 - Normal
09/02/2026 05 AM PDT 10.13 232 - Normal
09/02/2026 06 AM PDT 10.12 230 - Normal
09/02/2026 07 AM PDT 10.13 232 + Normal
09/02/2026 08 AM PDT 10.14 235 + Normal
09/02/2026 09 AM PDT 10.13 232 - Normal
09/02/2026 10 AM PDT 10.14 235 + Normal
09/02/2026 11 AM PDT 10.13 232 - Normal
09/02/2026 12 PM PDT 10.16 239 + Normal
09/02/2026 01 PM PDT 10.13 232 - Normal
09/02/2026 02 PM PDT 10.13 232 0 Normal
09/02/2026 03 PM PDT 10.12 230 - Normal
09/02/2026 04 PM PDT 10.12 230 0 Normal
09/02/2026 05 PM PDT 10.12 230 0 Normal
09/02/2026 06 PM PDT 10.13 232 + Normal
09/02/2026 07 PM PDT 10.12 230 - Normal
09/02/2026 08 PM PDT 10.11 227 - Normal
09/02/2026 09 PM PDT 10.11 227 0 Normal
09/02/2026 10 PM PDT 10.11 227 0 Normal
09/02/2026 11 PM PDT 10.11 227 0 Normal
09/03/2026 12 AM PDT 10.13 232 + Normal
09/03/2026 01 AM PDT 10.10 225 - Normal
09/03/2026 02 AM PDT 10.09 222 - Normal
09/03/2026 03 AM PDT 10.11 227 + Normal
09/03/2026 04 AM PDT 10.12 230 + Normal
09/03/2026 05 AM PDT 10.13 232 + Normal
09/03/2026 06 AM PDT 10.10 225 - Normal
09/03/2026 07 AM PDT 10.11 227 + Normal
09/03/2026 08 AM PDT 10.10 225 - Normal
09/03/2026 09 AM PDT 10.10 225 0 Normal
09/03/2026 10 AM PDT 10.10 225 0 Normal
09/03/2026 11 AM PDT 10.09 222 - Normal
09/03/2026 12 PM PDT 10.09 222 0 Normal
09/03/2026 01 PM PDT 10.10 225 + Normal
09/03/2026 02 PM PDT 10.08 220 - Normal
09/03/2026 03 PM PDT 10.09 222 + Normal
09/03/2026 04 PM PDT 10.09 222 0 Normal
09/03/2026 05 PM PDT 10.07 218 - Normal
09/03/2026 06 PM PDT 10.07 218 0 Normal
09/03/2026 07 PM PDT 10.08 220 + Normal
09/03/2026 08 PM PDT 10.06 215 - Normal
09/03/2026 09 PM PDT 10.07 218 + Normal
09/03/2026 10 PM PDT 10.08 220 + Normal
09/03/2026 11 PM PDT 10.07 218 - Normal
09/04/2026 12 AM PDT 10.06 215 - Normal
09/04/2026 01 AM PDT 10.06 215 0 Normal
09/04/2026 02 AM PDT 10.07 218 + Normal
09/04/2026 03 AM PDT 10.07 218 0 Normal
09/04/2026 04 AM PDT 10.11 227 + Normal
09/04/2026 05 AM PDT 10.08 220 - Normal
09/04/2026 06 AM PDT 10.07 218 - Normal
09/04/2026 07 AM PDT 10.07 218 0 Normal
#
# FORECAST
#
# Date & Time (Local) Stage (Feet) Flow (cfs) Trend Forecast Status
# ---------------------------------------------------------------------------------
09/04/2026 08 AM PDT 10.07 218 Normal
09/04/2026 09 AM PDT 10.07 218 0 Normal
09/04/2026 10 AM PDT 10.07 218 0 Normal
09/04/2026 11 AM PDT 10.07 218 0 Normal
09/04/2026 12 PM PDT 10.07 218 0 Normal
09/04/2026 01 PM PDT 10.07 218 0 Normal
09/04/2026 02 PM PDT 10.07 218 0 Normal
09/04/2026 03 PM PDT 10.07 218 0 Normal
09/04/2026 04 PM PDT 10.07 218 0 Normal
09/04/2026 05 PM PDT 10.07 218 0 Normal
09/04/2026 06 PM PDT 10.07 218 0 Normal
09/04/2026 07 PM PDT 10.07 218 0 Normal
09/04/2026 08 PM PDT 10.07 218 0 Normal
09/04/2026 09 PM PDT 10.07 218 0 Normal
09/04/2026 10 PM PDT 10.07 218 0 Normal
09/04/2026 11 PM PDT 10.07 218 0 Normal
09/05/2026 12 AM PDT 10.07 218 0 Normal
09/05/2026 01 AM PDT 10.07 218 0 Normal
09/05/2026 02 AM PDT 10.07 218 0 Normal
09/05/2026 03 AM PDT 10.07 218 0 Normal
09/05/2026 04 AM PDT 10.07 218 0 Normal
09/05/2026 05 AM PDT 10.07 218 0 Normal
09/05/2026 06 AM PDT 10.07 218 0 Normal
09/05/2026 07 AM PDT 10.07 218 0 Normal
09/05/2026 08 AM PDT 10.07 218 0 Normal
09/05/2026 09 AM PDT 10.07 218 0 Normal
09/05/2026 10 AM PDT 10.07 218 0 Normal
09/05/2026 11 AM PDT 10.07 218 0 Normal
09/05/2026 12 PM PDT 10.07 218 0 Normal
09/05/2026 01 PM PDT 10.07 218 0 Normal
09/05/2026 02 PM PDT 10.07 218 0 Normal
09/05/2026 03 PM PDT 10.07 218 0 Normal
09/05/2026 04 PM PDT 10.07 218 0 Normal
09/05/2026 05 PM PDT 10.07 218 0 Normal
09/05/2026 06 PM PDT 10.07 218 0 Normal
09/05/2026 07 PM PDT 10.07 218 0 Normal
09/05/2026 08 PM PDT 10.07 218 0 Normal
09/05/2026 09 PM PDT 10.07 218 0 Normal
09/05/2026 10 PM PDT 10.07 218 0 Normal
09/05/2026 11 PM PDT 10.07 218 0 Normal
09/06/2026 12 AM PDT 10.07 218 0 Normal
09/06/2026 01 AM PDT 10.07 218 0 Normal
09/06/2026 02 AM PDT 10.07 218 0 Normal
09/06/2026 03 AM PDT 10.07 218 0 Normal
09/06/2026 04 AM PDT 10.07 218 0 Normal
09/06/2026 05 AM PDT 10.07 218 0 Normal
09/06/2026 06 AM PDT 10.07 218 0 Normal
09/06/2026 07 AM PDT 10.07 218 0 Normal
09/06/2026 08 AM PDT 10.07 218 0 Normal
09/06/2026 09 AM PDT 10.07 218 0 Normal
09/06/2026 10 AM PDT 10.07 218 0 Normal
09/06/2026 11 AM PDT 10.07 218 0 Normal
09/06/2026 12 PM PDT 10.07 218 0 Normal
09/06/2026 01 PM PDT 10.07 218 0 Normal
09/06/2026 02 PM PDT 10.07 218 0 Normal
09/06/2026 03 PM PDT 10.07 218 0 Normal
09/06/2026 04 PM PDT 10.07 218 0 Normal
09/06/2026 05 PM PDT 10.07 218 0 Normal
09/06/2026 06 PM PDT 10.07 218 0 Normal
09/06/2026 07 PM PDT 10.07 218 0 Normal
09/06/2026 08 PM PDT 10.07 218 0 Normal
09/06/2026 09 PM PDT 10.07 218 0 Normal
09/06/2026 10 PM PDT 10.07 218 0 Normal
09/06/2026 11 PM PDT 10.07 218 0 Normal
09/07/2026 12 AM PDT 10.07 218 0 Normal
09/07/2026 01 AM PDT 10.07 218 0 Normal
09/07/2026 02 AM PDT 10.07 218 0 Normal
09/07/2026 03 AM PDT 10.07 218 0 Normal
09/07/2026 04 AM PDT 10.07 218 0 Normal
09/07/2026 05 AM PDT 10.07 218 0 Normal
09/07/2026 06 AM PDT 10.07 218 0 Normal
09/07/2026 07 AM PDT 10.07 218 0 Normal
09/07/2026 08 AM PDT 10.07 218 0 Normal
09/07/2026 09 AM PDT 10.07 218 0 Normal
09/07/2026 10 AM PDT 10.07 218 0 Normal
09/07/2026 11 AM PDT 10.07 218 0 Normal
09/07/2026 12 PM PDT 10.07 218 0 Normal
09/07/2026 01 PM PDT 10.07 218 0 Normal
09/07/2026 02 PM PDT 10.07 218 0 Normal
09/07/2026 03 PM PDT 10.07 218 0 Normal
09/07/2026 04 PM PDT 10.07 218 0 Normal
09/07/2026 05 PM PDT 10.07 218 0 Normal
09/07/2026 06 PM PDT 10.07 218 0 Normal
09/07/2026 07 PM PDT 10.07 218 0 Normal
09/07/2026 08 PM PDT 10.07 218 0 Normal
09/07/2026 09 PM PDT 10.07 218 0 Normal
09/07/2026 10 PM PDT 10.07 218 0 Normal
09/07/2026 11 PM PDT 10.07 218 0 Normal
09/08/2026 12 AM PDT 10.07 218 0 Normal
09/08/2026 01 AM PDT 10.07 218 0 Normal
09/08/2026 02 AM PDT 10.07 218 0 Normal
09/08/2026 03 AM PDT 10.07 218 0 Normal
09/08/2026 04 AM PDT 10.07 218 0 Normal
09/08/2026 05 AM PDT 10.07 218 0 Normal
09/08/2026 06 AM PDT 10.07 218 0 Normal
09/08/2026 07 AM PDT 10.07 218 0 Normal
09/08/2026 08 AM PDT 10.07 218 0 Normal
09/08/2026 09 AM PDT 10.07 218 0 Normal
09/08/2026 10 AM PDT 10.07 218 0 Normal
09/08/2026 11 AM PDT 10.07 218 0 Normal
09/08/2026 12 PM PDT 10.07 218 0 Normal
09/08/2026 01 PM PDT 10.07 218 0 Normal
09/08/2026 02 PM PDT 10.07 218 0 Normal
09/08/2026 03 PM PDT 10.07 218 0 Normal
09/08/2026 04 PM PDT 10.07 218 0 Normal
09/08/2026 05 PM PDT 10.07 218 0 Normal
09/08/2026 06 PM PDT 10.07 218 0 Normal
09/08/2026 07 PM PDT 10.07 218 0 Normal
09/08/2026 08 PM PDT 10.07 218 0 Normal
09/08/2026 09 PM PDT 10.07 218 0 Normal
09/08/2026 10 PM PDT 10.07 218 0 Normal
09/08/2026 11 PM PDT 10.07 218 0 Normal
09/09/2026 12 AM PDT 10.07 218 0 Normal
09/09/2026 01 AM PDT 10.07 218 0 Normal
09/09/2026 02 AM PDT 10.07 218 0 Normal
09/09/2026 03 AM PDT 10.07 218 0 Normal
09/09/2026 04 AM PDT 10.07 218 0 Normal
09/09/2026 05 AM PDT 10.07 218 0 Normal
#
# NOTE 1: Stages are rounded to the nearest hundredth (.01) of a foot.
# NOTE 2: Flows are rounded to the nearest (1) cfs.
# NOTE 3: Trends are determined using hourly change in unrounded stage and flow.
# NOTE 4: Maximum Values are determined using unrounded stage and flow.
|